sensor_id;sensor_type;location;lat;lon;timestamp;temperature;humidity
31263;DHT22;17892;52.080;9.006;2024-02-21T00:00:52;9.90;99.90
31263;DHT22;17892;52.080;9.006;2024-02-21T00:03:18;9.90;99.90
31263;DHT22;17892;52.080;9.006;2024-02-21T00:05:44;9.90;99.90
31263;DHT22;17892;52.080;9.006;2024-02-21T00:08:10;9.90;99.90
31263;DHT22;17892;52.080;9.006;2024-02-21T00:10:36;9.90;99.90
31263;DHT22;17892;52.080;9.006;2024-02-21T00:13:02;9.90;99.90
31263;DHT22;17892;52.080;9.006;2024-02-21T00:15:27;9.90;99.90
31263;DHT22;17892;52.080;9.006;2024-02-21T00:17:53;9.90;99.90
31263;DHT22;17892;52.080;9.006;2024-02-21T00:20:19;9.90;99.90
31263;DHT22;17892;52.080;9.006;2024-02-21T00:22:45;9.90;99.90
31263;DHT22;17892;52.080;9.006;2024-02-21T00:25:11;9.90;99.90
31263;DHT22;17892;52.080;9.006;2024-02-21T00:27:36;9.90;99.90
31263;DHT22;17892;52.080;9.006;2024-02-21T00:30:03;10.00;99.90
31263;DHT22;17892;52.080;9.006;2024-02-21T00:32:28;10.00;99.90
31263;DHT22;17892;52.080;9.006;2024-02-21T00:34:54;10.00;99.90
31263;DHT22;17892;52.080;9.006;2024-02-21T00:37:20;10.00;99.90
31263;DHT22;17892;52.080;9.006;2024-02-21T00:39:46;10.00;99.90
31263;DHT22;17892;52.080;9.006;2024-02-21T00:42:11;10.00;99.90
31263;DHT22;17892;52.080;9.006;2024-02-21T00:44:37;10.10;99.90
31263;DHT22;17892;52.080;9.006;2024-02-21T00:47:03;10.10;99.90
31263;DHT22;17892;52.080;9.006;2024-02-21T00:49:28;10.10;99.90
31263;DHT22;17892;52.080;9.006;2024-02-21T00:51:54;10.10;99.90
31263;DHT22;17892;52.080;9.006;2024-02-21T00:54:20;10.10;99.90
31263;DHT22;17892;52.080;9.006;2024-02-21T00:56:46;10.10;99.90
31263;DHT22;17892;52.080;9.006;2024-02-21T00:59:12;10.10;99.90
31263;DHT22;17892;52.080;9.006;2024-02-21T01:01:38;10.10;99.90
31263;DHT22;17892;52.080;9.006;2024-02-21T01:04:03;10.10;99.90
31263;DHT22;17892;52.080;9.006;2024-02-21T01:06:29;10.20;99.90
31263;DHT22;17892;52.080;9.006;2024-02-21T01:08:55;10.20;99.90
31263;DHT22;17892;52.080;9.006;2024-02-21T01:11:20;10.20;99.90
31263;DHT22;17892;52.080;9.006;2024-02-21T01:13:46;10.20;99.90
31263;DHT22;17892;52.080;9.006;2024-02-21T01:16:12;10.20;99.90
31263;DHT22;17892;52.080;9.006;2024-02-21T01:18:38;10.20;99.90
31263;DHT22;17892;52.080;9.006;2024-02-21T01:21:05;10.20;99.90
31263;DHT22;17892;52.080;9.006;2024-02-21T01:23:33;10.20;99.90
31263;DHT22;17892;52.080;9.006;2024-02-21T01:26:03;10.20;99.90
31263;DHT22;17892;52.080;9.006;2024-02-21T01:28:29;10.20;99.90
31263;DHT22;17892;52.080;9.006;2024-02-21T01:30:56;10.20;99.90
31263;DHT22;17892;52.080;9.006;2024-02-21T01:33:22;10.20;99.90
31263;DHT22;17892;52.080;9.006;2024-02-21T01:35:47;10.30;99.90
31263;DHT22;17892;52.080;9.006;2024-02-21T01:38:14;10.20;99.90
31263;DHT22;17892;52.080;9.006;2024-02-21T01:40:40;10.20;99.90
31263;DHT22;17892;52.080;9.006;2024-02-21T01:43:15;10.30;99.90
31263;DHT22;17892;52.080;9.006;2024-02-21T01:45:43;10.30;99.90
31263;DHT22;17892;52.080;9.006;2024-02-21T01:48:09;10.20;99.90
31263;DHT22;17892;52.080;9.006;2024-02-21T01:50:35;10.20;99.90
31263;DHT22;17892;52.080;9.006;2024-02-21T01:53:01;10.20;99.90
31263;DHT22;17892;52.080;9.006;2024-02-21T01:55:28;10.20;99.90
31263;DHT22;17892;52.080;9.006;2024-02-21T01:57:53;10.20;99.90
31263;DHT22;17892;52.080;9.006;2024-02-21T02:00:19;10.20;99.90
31263;DHT22;17892;52.080;9.006;2024-02-21T02:02:46;10.20;99.90
31263;DHT22;17892;52.080;9.006;2024-02-21T02:05:11;10.20;99.90
31263;DHT22;17892;52.080;9.006;2024-02-21T02:07:37;10.30;99.90
31263;DHT22;17892;52.080;9.006;2024-02-21T02:10:03;10.30;99.90
31263;DHT22;17892;52.080;9.006;2024-02-21T02:12:29;10.30;99.90
31263;DHT22;17892;52.080;9.006;2024-02-21T02:15:02;10.30;99.90
31263;DHT22;17892;52.080;9.006;2024-02-21T02:17:31;10.30;99.90
31263;DHT22;17892;52.080;9.006;2024-02-21T02:19:56;10.30;99.90
31263;DHT22;17892;52.080;9.006;2024-02-21T02:22:28;10.30;99.90
31263;DHT22;17892;52.080;9.006;2024-02-21T02:24:54;10.30;99.90
31263;DHT22;17892;52.080;9.006;2024-02-21T02:27:20;10.30;99.90
31263;DHT22;17892;52.080;9.006;2024-02-21T02:29:48;10.30;99.90
31263;DHT22;17892;52.080;9.006;2024-02-21T02:32:14;10.30;99.90
31263;DHT22;17892;52.080;9.006;2024-02-21T02:34:39;10.30;99.90
31263;DHT22;17892;52.080;9.006;2024-02-21T02:37:05;10.30;99.90
31263;DHT22;17892;52.080;9.006;2024-02-21T02:39:31;10.30;99.90
31263;DHT22;17892;52.080;9.006;2024-02-21T02:41:56;10.30;99.90
31263;DHT22;17892;52.080;9.006;2024-02-21T02:44:22;10.30;99.90
31263;DHT22;17892;52.080;9.006;2024-02-21T02:46:47;10.30;99.90
31263;DHT22;17892;52.080;9.006;2024-02-21T02:49:13;10.30;99.90
31263;DHT22;17892;52.080;9.006;2024-02-21T02:51:42;10.30;99.90
31263;DHT22;17892;52.080;9.006;2024-02-21T02:54:09;10.30;99.90
31263;DHT22;17892;52.080;9.006;2024-02-21T02:56:35;10.30;99.90
31263;DHT22;17892;52.080;9.006;2024-02-21T02:59:01;10.30;99.90
31263;DHT22;17892;52.080;9.006;2024-02-21T03:01:26;10.30;99.90
31263;DHT22;17892;52.080;9.006;2024-02-21T03:03:52;10.30;99.90
31263;DHT22;17892;52.080;9.006;2024-02-21T03:06:19;10.30;99.90
31263;DHT22;17892;52.080;9.006;2024-02-21T03:08:44;10.30;99.90
31263;DHT22;17892;52.080;9.006;2024-02-21T03:11:10;10.30;99.90
31263;DHT22;17892;52.080;9.006;2024-02-21T03:13:36;10.30;99.90
31263;DHT22;17892;52.080;9.006;2024-02-21T03:16:02;10.30;99.90
31263;DHT22;17892;52.080;9.006;2024-02-21T03:18:28;10.30;99.90
31263;DHT22;17892;52.080;9.006;2024-02-21T03:20:54;10.30;99.90
31263;DHT22;17892;52.080;9.006;2024-02-21T03:23:19;10.30;99.90
31263;DHT22;17892;52.080;9.006;2024-02-21T03:25:45;10.30;99.90
31263;DHT22;17892;52.080;9.006;2024-02-21T03:28:11;10.30;99.90
31263;DHT22;17892;52.080;9.006;2024-02-21T03:30:36;10.30;99.90
31263;DHT22;17892;52.080;9.006;2024-02-21T03:33:02;10.30;99.90
31263;DHT22;17892;52.080;9.006;2024-02-21T03:35:28;10.30;99.90
31263;DHT22;17892;52.080;9.006;2024-02-21T03:37:54;10.40;99.90
31263;DHT22;17892;52.080;9.006;2024-02-21T03:40:19;10.40;99.90
31263;DHT22;17892;52.080;9.006;2024-02-21T03:42:45;10.40;99.90
31263;DHT22;17892;52.080;9.006;2024-02-21T03:45:11;10.30;99.90
31263;DHT22;17892;52.080;9.006;2024-02-21T03:47:36;10.30;99.90
31263;DHT22;17892;52.080;9.006;2024-02-21T03:50:02;10.30;99.90
31263;DHT22;17892;52.080;9.006;2024-02-21T03:52:28;10.40;99.90
31263;DHT22;17892;52.080;9.006;2024-02-21T03:54:53;10.30;99.90
31263;DHT22;17892;52.080;9.006;2024-02-21T03:57:20;10.30;99.90
31263;DHT22;17892;52.080;9.006;2024-02-21T03:59:46;10.30;99.90
31263;DHT22;17892;52.080;9.006;2024-02-21T04:02:14;10.30;99.90
31263;DHT22;17892;52.080;9.006;2024-02-21T04:04:43;10.30;99.90
31263;DHT22;17892;52.080;9.006;2024-02-21T04:07:12;10.30;99.90
31263;DHT22;17892;52.080;9.006;2024-02-21T04:09:39;10.30;99.90
31263;DHT22;17892;52.080;9.006;2024-02-21T04:12:05;10.30;99.90
31263;DHT22;17892;52.080;9.006;2024-02-21T04:14:31;10.40;99.90
31263;DHT22;17892;52.080;9.006;2024-02-21T04:16:57;10.30;99.90
31263;DHT22;17892;52.080;9.006;2024-02-21T04:19:23;10.30;99.90
31263;DHT22;17892;52.080;9.006;2024-02-21T04:21:48;10.30;99.90
31263;DHT22;17892;52.080;9.006;2024-02-21T04:24:14;10.30;99.90
31263;DHT22;17892;52.080;9.006;2024-02-21T04:26:39;10.30;99.90
31263;DHT22;17892;52.080;9.006;2024-02-21T04:29:06;10.30;99.90
31263;DHT22;17892;52.080;9.006;2024-02-21T04:31:34;10.30;99.90
31263;DHT22;17892;52.080;9.006;2024-02-21T04:34:00;10.30;99.90
31263;DHT22;17892;52.080;9.006;2024-02-21T04:36:25;10.40;99.90
31263;DHT22;17892;52.080;9.006;2024-02-21T04:38:51;10.30;99.90
31263;DHT22;17892;52.080;9.006;2024-02-21T04:41:17;10.40;99.90
31263;DHT22;17892;52.080;9.006;2024-02-21T04:43:42;10.30;99.90
31263;DHT22;17892;52.080;9.006;2024-02-21T04:46:08;10.30;99.90
31263;DHT22;17892;52.080;9.006;2024-02-21T04:48:35;10.30;99.90
31263;DHT22;17892;52.080;9.006;2024-02-21T04:51:00;10.40;99.90
31263;DHT22;17892;52.080;9.006;2024-02-21T04:53:26;10.30;99.90
31263;DHT22;17892;52.080;9.006;2024-02-21T04:55:52;10.20;99.90
31263;DHT22;17892;52.080;9.006;2024-02-21T04:58:17;10.20;99.90
31263;DHT22;17892;52.080;9.006;2024-02-21T05:00:43;10.20;99.90
31263;DHT22;17892;52.080;9.006;2024-02-21T05:03:09;10.20;99.90
31263;DHT22;17892;52.080;9.006;2024-02-21T05:05:34;10.20;99.90
31263;DHT22;17892;52.080;9.006;2024-02-21T05:08:01;10.10;99.90
31263;DHT22;17892;52.080;9.006;2024-02-21T05:10:26;10.10;99.90
31263;DHT22;17892;52.080;9.006;2024-02-21T05:12:52;10.10;99.90
31263;DHT22;17892;52.080;9.006;2024-02-21T05:15:18;10.00;99.90
31263;DHT22;17892;52.080;9.006;2024-02-21T05:17:44;10.00;99.90
31263;DHT22;17892;52.080;9.006;2024-02-21T05:20:10;10.00;99.90
31263;DHT22;17892;52.080;9.006;2024-02-21T05:22:36;10.00;99.90
31263;DHT22;17892;52.080;9.006;2024-02-21T05:25:01;10.00;99.90
31263;DHT22;17892;52.080;9.006;2024-02-21T05:27:27;9.90;99.90
31263;DHT22;17892;52.080;9.006;2024-02-21T05:29:53;9.90;99.90
31263;DHT22;17892;52.080;9.006;2024-02-21T05:32:19;9.90;99.90
31263;DHT22;17892;52.080;9.006;2024-02-21T05:34:48;9.90;99.90
31263;DHT22;17892;52.080;9.006;2024-02-21T05:37:15;9.90;99.90
31263;DHT22;17892;52.080;9.006;2024-02-21T05:39:40;9.90;99.90
31263;DHT22;17892;52.080;9.006;2024-02-21T05:42:06;9.90;99.90
31263;DHT22;17892;52.080;9.006;2024-02-21T05:44:32;9.90;99.90
31263;DHT22;17892;52.080;9.006;2024-02-21T05:46:58;10.00;99.90
31263;DHT22;17892;52.080;9.006;2024-02-21T05:49:23;9.90;99.90
31263;DHT22;17892;52.080;9.006;2024-02-21T05:51:49;9.90;99.90
31263;DHT22;17892;52.080;9.006;2024-02-21T05:54:14;9.90;99.90
31263;DHT22;17892;52.080;9.006;2024-02-21T05:56:44;9.90;99.90
31263;DHT22;17892;52.080;9.006;2024-02-21T05:59:11;9.90;99.90
31263;DHT22;17892;52.080;9.006;2024-02-21T06:01:36;9.90;99.90
31263;DHT22;17892;52.080;9.006;2024-02-21T06:04:02;9.90;99.90
31263;DHT22;17892;52.080;9.006;2024-02-21T06:06:28;9.90;99.90
31263;DHT22;17892;52.080;9.006;2024-02-21T06:08:53;9.90;99.90
31263;DHT22;17892;52.080;9.006;2024-02-21T06:11:19;9.90;99.90
31263;DHT22;17892;52.080;9.006;2024-02-21T06:13:45;9.90;99.90
31263;DHT22;17892;52.080;9.006;2024-02-21T06:16:10;9.90;99.90
31263;DHT22;17892;52.080;9.006;2024-02-21T06:18:36;9.90;99.90
31263;DHT22;17892;52.080;9.006;2024-02-21T06:21:03;9.90;99.90
31263;DHT22;17892;52.080;9.006;2024-02-21T06:23:29;9.90;99.90
31263;DHT22;17892;52.080;9.006;2024-02-21T06:25:54;10.00;99.90
31263;DHT22;17892;52.080;9.006;2024-02-21T06:28:20;9.90;99.90
31263;DHT22;17892;52.080;9.006;2024-02-21T06:30:46;9.90;99.90
31263;DHT22;17892;52.080;9.006;2024-02-21T06:33:11;10.00;99.90
31263;DHT22;17892;52.080;9.006;2024-02-21T06:35:37;9.90;99.90
31263;DHT22;17892;52.080;9.006;2024-02-21T06:38:06;9.90;99.90
31263;DHT22;17892;52.080;9.006;2024-02-21T06:40:32;9.90;99.90
31263;DHT22;17892;52.080;9.006;2024-02-21T06:43:04;9.90;99.90
31263;DHT22;17892;52.080;9.006;2024-02-21T06:45:30;9.90;99.90
31263;DHT22;17892;52.080;9.006;2024-02-21T06:47:55;10.00;99.90
31263;DHT22;17892;52.080;9.006;2024-02-21T06:50:21;9.90;99.90
31263;DHT22;17892;52.080;9.006;2024-02-21T06:52:47;9.90;99.90
31263;DHT22;17892;52.080;9.006;2024-02-21T06:55:12;9.90;99.90
31263;DHT22;17892;52.080;9.006;2024-02-21T06:57:38;9.90;99.90
31263;DHT22;17892;52.080;9.006;2024-02-21T07:00:04;9.90;99.90
31263;DHT22;17892;52.080;9.006;2024-02-21T07:02:33;9.90;99.90
31263;DHT22;17892;52.080;9.006;2024-02-21T07:04:59;9.90;99.90
31263;DHT22;17892;52.080;9.006;2024-02-21T07:07:25;9.90;99.90
31263;DHT22;17892;52.080;9.006;2024-02-21T07:09:51;10.00;99.90
31263;DHT22;17892;52.080;9.006;2024-02-21T07:12:17;9.90;99.90
31263;DHT22;17892;52.080;9.006;2024-02-21T07:14:42;10.00;99.90
31263;DHT22;17892;52.080;9.006;2024-02-21T07:17:08;9.90;99.90
31263;DHT22;17892;52.080;9.006;2024-02-21T07:19:33;10.00;99.90
31263;DHT22;17892;52.080;9.006;2024-02-21T07:22:00;10.00;99.90
31263;DHT22;17892;52.080;9.006;2024-02-21T07:24:26;10.00;99.90
31263;DHT22;17892;52.080;9.006;2024-02-21T07:26:52;10.00;99.90
31263;DHT22;17892;52.080;9.006;2024-02-21T07:29:18;10.10;99.90
31263;DHT22;17892;52.080;9.006;2024-02-21T07:31:44;10.20;99.90
31263;DHT22;17892;52.080;9.006;2024-02-21T07:34:10;10.20;99.90
31263;DHT22;17892;52.080;9.006;2024-02-21T07:36:36;10.20;99.90
31263;DHT22;17892;52.080;9.006;2024-02-21T07:39:05;10.20;99.90
31263;DHT22;17892;52.080;9.006;2024-02-21T07:41:31;10.30;99.90
31263;DHT22;17892;52.080;9.006;2024-02-21T07:43:57;10.30;99.90
31263;DHT22;17892;52.080;9.006;2024-02-21T07:46:23;10.40;99.90
31263;DHT22;17892;52.080;9.006;2024-02-21T07:48:50;10.40;99.90
31263;DHT22;17892;52.080;9.006;2024-02-21T07:51:15;10.40;99.90
31263;DHT22;17892;52.080;9.006;2024-02-21T07:53:44;10.40;99.90
31263;DHT22;17892;52.080;9.006;2024-02-21T07:56:14;10.50;99.90
31263;DHT22;17892;52.080;9.006;2024-02-21T07:58:41;10.50;99.90
31263;DHT22;17892;52.080;9.006;2024-02-21T08:01:07;10.50;99.90
31263;DHT22;17892;52.080;9.006;2024-02-21T08:03:33;10.50;99.90
31263;DHT22;17892;52.080;9.006;2024-02-21T08:05:59;10.50;99.90
31263;DHT22;17892;52.080;9.006;2024-02-21T08:08:25;10.50;99.90
31263;DHT22;17892;52.080;9.006;2024-02-21T08:10:51;10.50;99.90
31263;DHT22;17892;52.080;9.006;2024-02-21T08:13:17;10.60;99.90
31263;DHT22;17892;52.080;9.006;2024-02-21T08:15:43;10.60;99.90
31263;DHT22;17892;52.080;9.006;2024-02-21T08:18:09;10.60;99.90
31263;DHT22;17892;52.080;9.006;2024-02-21T08:20:35;10.60;99.90
31263;DHT22;17892;52.080;9.006;2024-02-21T08:23:01;10.70;99.90
31263;DHT22;17892;52.080;9.006;2024-02-21T08:25:26;10.70;99.90
31263;DHT22;17892;52.080;9.006;2024-02-21T08:27:57;10.80;99.90
31263;DHT22;17892;52.080;9.006;2024-02-21T08:30:23;10.80;99.90
31263;DHT22;17892;52.080;9.006;2024-02-21T08:32:49;10.90;99.90
31263;DHT22;17892;52.080;9.006;2024-02-21T08:35:15;10.90;99.90
31263;DHT22;17892;52.080;9.006;2024-02-21T08:37:43;11.00;99.90
31263;DHT22;17892;52.080;9.006;2024-02-21T08:40:10;11.00;99.90
31263;DHT22;17892;52.080;9.006;2024-02-21T08:42:36;11.10;99.90
31263;DHT22;17892;52.080;9.006;2024-02-21T08:45:03;11.20;99.90
31263;DHT22;17892;52.080;9.006;2024-02-21T08:47:29;11.20;99.90
31263;DHT22;17892;52.080;9.006;2024-02-21T08:49:54;11.30;99.90
31263;DHT22;17892;52.080;9.006;2024-02-21T08:52:20;11.40;99.90
31263;DHT22;17892;52.080;9.006;2024-02-21T08:54:46;11.40;99.90
31263;DHT22;17892;52.080;9.006;2024-02-21T08:57:11;11.50;99.90
31263;DHT22;17892;52.080;9.006;2024-02-21T08:59:39;11.50;99.90
31263;DHT22;17892;52.080;9.006;2024-02-21T09:02:05;11.60;99.90
31263;DHT22;17892;52.080;9.006;2024-02-21T09:04:32;11.60;99.90
31263;DHT22;17892;52.080;9.006;2024-02-21T09:06:58;11.70;99.90
31263;DHT22;17892;52.080;9.006;2024-02-21T09:09:24;11.80;99.90
31263;DHT22;17892;52.080;9.006;2024-02-21T09:11:50;11.80;99.90
31263;DHT22;17892;52.080;9.006;2024-02-21T09:14:16;11.80;99.90
31263;DHT22;17892;52.080;9.006;2024-02-21T09:16:42;11.90;99.90
31263;DHT22;17892;52.080;9.006;2024-02-21T09:19:09;11.90;99.90
31263;DHT22;17892;52.080;9.006;2024-02-21T09:21:39;12.00;99.90
31263;DHT22;17892;52.080;9.006;2024-02-21T09:24:08;12.00;99.90
31263;DHT22;17892;52.080;9.006;2024-02-21T09:26:33;12.10;99.90
31263;DHT22;17892;52.080;9.006;2024-02-21T09:28:59;12.10;99.90
31263;DHT22;17892;52.080;9.006;2024-02-21T09:31:25;12.10;99.90
31263;DHT22;17892;52.080;9.006;2024-02-21T09:33:50;12.20;99.90
31263;DHT22;17892;52.080;9.006;2024-02-21T09:36:16;12.30;99.90
31263;DHT22;17892;52.080;9.006;2024-02-21T09:38:42;12.20;99.90
31263;DHT22;17892;52.080;9.006;2024-02-21T09:41:18;12.30;99.90
31263;DHT22;17892;52.080;9.006;2024-02-21T09:43:44;12.30;99.90
31263;DHT22;17892;52.080;9.006;2024-02-21T09:46:17;12.30;99.90
31263;DHT22;17892;52.080;9.006;2024-02-21T09:49:21;12.40;99.90
31263;DHT22;17892;52.080;9.006;2024-02-21T09:51:54;12.40;99.90
31263;DHT22;17892;52.080;9.006;2024-02-21T09:54:21;12.50;99.90
31263;DHT22;17892;52.080;9.006;2024-02-21T09:56:47;12.50;99.90
31263;DHT22;17892;52.080;9.006;2024-02-21T09:59:16;12.60;99.90
31263;DHT22;17892;52.080;9.006;2024-02-21T10:01:45;12.70;99.90
31263;DHT22;17892;52.080;9.006;2024-02-21T10:04:12;12.80;99.90
31263;DHT22;17892;52.080;9.006;2024-02-21T10:06:38;12.80;99.90
31263;DHT22;17892;52.080;9.006;2024-02-21T10:09:06;12.90;99.90
31263;DHT22;17892;52.080;9.006;2024-02-21T10:11:32;12.90;99.90
31263;DHT22;17892;52.080;9.006;2024-02-21T10:14:06;13.00;99.90
31263;DHT22;17892;52.080;9.006;2024-02-21T10:16:32;13.10;99.90
31263;DHT22;17892;52.080;9.006;2024-02-21T10:18:59;13.10;99.90
31263;DHT22;17892;52.080;9.006;2024-02-21T10:21:24;13.20;99.90
31263;DHT22;17892;52.080;9.006;2024-02-21T10:23:51;13.30;99.90
31263;DHT22;17892;52.080;9.006;2024-02-21T10:26:19;13.30;99.90
31263;DHT22;17892;52.080;9.006;2024-02-21T10:28:45;13.30;99.90
31263;DHT22;17892;52.080;9.006;2024-02-21T10:31:22;13.30;99.90
31263;DHT22;17892;52.080;9.006;2024-02-21T10:34:02;13.30;99.90
31263;DHT22;17892;52.080;9.006;2024-02-21T10:36:28;13.30;99.90
31263;DHT22;17892;52.080;9.006;2024-02-21T10:38:55;13.30;99.90
31263;DHT22;17892;52.080;9.006;2024-02-21T10:41:21;13.30;99.90
31263;DHT22;17892;52.080;9.006;2024-02-21T10:43:52;13.30;99.90
31263;DHT22;17892;52.080;9.006;2024-02-21T10:46:21;13.30;99.90
31263;DHT22;17892;52.080;9.006;2024-02-21T10:48:51;13.40;99.90
31263;DHT22;17892;52.080;9.006;2024-02-21T10:51:28;13.40;99.90
31263;DHT22;17892;52.080;9.006;2024-02-21T10:57:04;13.50;99.90
31263;DHT22;17892;52.080;9.006;2024-02-21T10:59:32;13.40;99.90
31263;DHT22;17892;52.080;9.006;2024-02-21T11:01:57;13.40;99.90
31263;DHT22;17892;52.080;9.006;2024-02-21T11:04:24;13.50;99.90
31263;DHT22;17892;52.080;9.006;2024-02-21T11:06:51;13.50;99.90
31263;DHT22;17892;52.080;9.006;2024-02-21T11:09:17;13.50;99.90
31263;DHT22;17892;52.080;9.006;2024-02-21T11:11:43;13.70;99.90
31263;DHT22;17892;52.080;9.006;2024-02-21T11:14:22;13.60;99.90
31263;DHT22;17892;52.080;9.006;2024-02-21T11:16:48;13.60;99.90
31263;DHT22;17892;52.080;9.006;2024-02-21T11:19:24;13.70;99.90
31263;DHT22;17892;52.080;9.006;2024-02-21T11:21:51;13.70;99.90
31263;DHT22;17892;52.080;9.006;2024-02-21T11:24:34;13.70;99.90
31263;DHT22;17892;52.080;9.006;2024-02-21T11:27:11;13.80;99.90
31263;DHT22;17892;52.080;9.006;2024-02-21T11:29:44;13.80;99.90
31263;DHT22;17892;52.080;9.006;2024-02-21T11:32:11;13.80;99.90
31263;DHT22;17892;52.080;9.006;2024-02-21T11:34:40;13.80;99.90
31263;DHT22;17892;52.080;9.006;2024-02-21T11:37:13;13.70;99.90
31263;DHT22;17892;52.080;9.006;2024-02-21T11:39:41;13.70;99.90
31263;DHT22;17892;52.080;9.006;2024-02-21T11:42:08;13.70;99.90
31263;DHT22;17892;52.080;9.006;2024-02-21T11:44:38;13.70;99.90
31263;DHT22;17892;52.080;9.006;2024-02-21T11:47:05;13.70;99.90
31263;DHT22;17892;52.080;9.006;2024-02-21T11:49:44;13.80;99.90
31263;DHT22;17892;52.080;9.006;2024-02-21T11:52:11;13.80;99.90
31263;DHT22;17892;52.080;9.006;2024-02-21T11:54:37;13.90;99.90
31263;DHT22;17892;52.080;9.006;2024-02-21T11:57:03;14.00;99.90
31263;DHT22;17892;52.080;9.006;2024-02-21T11:59:33;14.00;99.90
31263;DHT22;17892;52.080;9.006;2024-02-21T12:02:03;14.00;99.90
31263;DHT22;17892;52.080;9.006;2024-02-21T12:04:29;14.00;99.90
31263;DHT22;17892;52.080;9.006;2024-02-21T12:06:57;14.00;99.90
31263;DHT22;17892;52.080;9.006;2024-02-21T12:09:24;14.00;99.90
31263;DHT22;17892;52.080;9.006;2024-02-21T12:12:01;13.90;99.90
31263;DHT22;17892;52.080;9.006;2024-02-21T12:14:29;13.90;99.90
31263;DHT22;17892;52.080;9.006;2024-02-21T12:16:59;13.90;99.90
31263;DHT22;17892;52.080;9.006;2024-02-21T12:19:26;13.90;99.90
31263;DHT22;17892;52.080;9.006;2024-02-21T12:21:51;13.90;99.90
31263;DHT22;17892;52.080;9.006;2024-02-21T12:24:23;13.80;99.90
31263;DHT22;17892;52.080;9.006;2024-02-21T12:26:54;13.80;99.90
31263;DHT22;17892;52.080;9.006;2024-02-21T12:29:22;13.80;99.90
31263;DHT22;17892;52.080;9.006;2024-02-21T12:31:51;13.80;99.90
31263;DHT22;17892;52.080;9.006;2024-02-21T12:34:17;13.70;99.90
31263;DHT22;17892;52.080;9.006;2024-02-21T12:36:44;13.70;99.90
31263;DHT22;17892;52.080;9.006;2024-02-21T12:39:12;13.70;99.90
31263;DHT22;17892;52.080;9.006;2024-02-21T12:41:38;13.60;99.90
31263;DHT22;17892;52.080;9.006;2024-02-21T12:44:08;13.60;99.90
31263;DHT22;17892;52.080;9.006;2024-02-21T12:46:34;13.60;99.90
31263;DHT22;17892;52.080;9.006;2024-02-21T12:49:01;13.60;99.90
31263;DHT22;17892;52.080;9.006;2024-02-21T12:51:27;13.50;99.90
31263;DHT22;17892;52.080;9.006;2024-02-21T12:53:53;13.60;99.90
31263;DHT22;17892;52.080;9.006;2024-02-21T12:56:18;13.60;99.90
31263;DHT22;17892;52.080;9.006;2024-02-21T12:58:44;13.60;99.90
31263;DHT22;17892;52.080;9.006;2024-02-21T13:01:10;13.60;99.90
31263;DHT22;17892;52.080;9.006;2024-02-21T13:03:35;13.60;99.90
31263;DHT22;17892;52.080;9.006;2024-02-21T13:06:01;13.60;99.90
31263;DHT22;17892;52.080;9.006;2024-02-21T13:08:27;13.60;99.90
31263;DHT22;17892;52.080;9.006;2024-02-21T13:10:53;13.60;99.90
31263;DHT22;17892;52.080;9.006;2024-02-21T13:13:19;13.70;99.90
31263;DHT22;17892;52.080;9.006;2024-02-21T13:15:44;13.70;99.90
31263;DHT22;17892;52.080;9.006;2024-02-21T13:18:10;13.70;99.90
31263;DHT22;17892;52.080;9.006;2024-02-21T13:20:36;13.70;99.90
31263;DHT22;17892;52.080;9.006;2024-02-21T13:23:02;13.70;99.90
31263;DHT22;17892;52.080;9.006;2024-02-21T13:25:28;13.70;99.90
31263;DHT22;17892;52.080;9.006;2024-02-21T13:27:54;13.60;99.90
31263;DHT22;17892;52.080;9.006;2024-02-21T13:30:21;13.60;99.90
31263;DHT22;17892;52.080;9.006;2024-02-21T13:32:47;13.60;99.90
31263;DHT22;17892;52.080;9.006;2024-02-21T13:35:13;13.50;99.90
31263;DHT22;17892;52.080;9.006;2024-02-21T13:37:40;13.40;99.90
31263;DHT22;17892;52.080;9.006;2024-02-21T13:40:06;13.40;99.90
31263;DHT22;17892;52.080;9.006;2024-02-21T13:42:34;13.30;99.90
31263;DHT22;17892;52.080;9.006;2024-02-21T13:45:00;13.20;99.90
31263;DHT22;17892;52.080;9.006;2024-02-21T13:47:27;13.20;99.90
31263;DHT22;17892;52.080;9.006;2024-02-21T13:49:52;13.10;99.90
31263;DHT22;17892;52.080;9.006;2024-02-21T13:52:18;13.10;99.90
31263;DHT22;17892;52.080;9.006;2024-02-21T13:54:46;13.00;99.90
31263;DHT22;17892;52.080;9.006;2024-02-21T13:57:12;13.00;99.90
31263;DHT22;17892;52.080;9.006;2024-02-21T13:59:39;12.80;99.90
31263;DHT22;17892;52.080;9.006;2024-02-21T14:02:05;12.80;99.90
31263;DHT22;17892;52.080;9.006;2024-02-21T14:04:34;12.80;99.90
31263;DHT22;17892;52.080;9.006;2024-02-21T14:07:00;12.70;99.90
31263;DHT22;17892;52.080;9.006;2024-02-21T14:09:27;12.70;99.90
31263;DHT22;17892;52.080;9.006;2024-02-21T14:11:55;12.70;99.90
31263;DHT22;17892;52.080;9.006;2024-02-21T14:14:21;12.60;99.90
31263;DHT22;17892;52.080;9.006;2024-02-21T14:16:46;12.60;99.90
31263;DHT22;17892;52.080;9.006;2024-02-21T14:19:15;12.50;99.90
31263;DHT22;17892;52.080;9.006;2024-02-21T14:21:41;12.50;99.90
31263;DHT22;17892;52.080;9.006;2024-02-21T14:24:06;12.40;99.90
31263;DHT22;17892;52.080;9.006;2024-02-21T14:26:33;12.40;99.90
31263;DHT22;17892;52.080;9.006;2024-02-21T14:28:59;12.50;99.90
31263;DHT22;17892;52.080;9.006;2024-02-21T14:31:24;12.40;99.90
31263;DHT22;17892;52.080;9.006;2024-02-21T14:33:53;12.50;99.90
31263;DHT22;17892;52.080;9.006;2024-02-21T14:36:19;12.40;99.90
31263;DHT22;17892;52.080;9.006;2024-02-21T14:38:44;12.40;99.90
31263;DHT22;17892;52.080;9.006;2024-02-21T14:41:10;12.40;99.90
31263;DHT22;17892;52.080;9.006;2024-02-21T14:43:39;12.40;99.90
31263;DHT22;17892;52.080;9.006;2024-02-21T14:46:05;12.50;99.90
31263;DHT22;17892;52.080;9.006;2024-02-21T14:48:31;12.50;99.90
31263;DHT22;17892;52.080;9.006;2024-02-21T14:51:00;12.50;99.90
31263;DHT22;17892;52.080;9.006;2024-02-21T14:53:26;12.50;99.90
31263;DHT22;17892;52.080;9.006;2024-02-21T14:55:52;12.50;99.90
31263;DHT22;17892;52.080;9.006;2024-02-21T14:58:17;12.60;99.90
31263;DHT22;17892;52.080;9.006;2024-02-21T15:00:45;12.60;99.90
31263;DHT22;17892;52.080;9.006;2024-02-21T15:03:12;12.60;99.90
31263;DHT22;17892;52.080;9.006;2024-02-21T15:05:41;12.60;99.90
31263;DHT22;17892;52.080;9.006;2024-02-21T15:08:07;12.70;99.90
31263;DHT22;17892;52.080;9.006;2024-02-21T15:10:34;12.50;99.90
31263;DHT22;17892;52.080;9.006;2024-02-21T15:13:00;12.50;99.90
31263;DHT22;17892;52.080;9.006;2024-02-21T15:15:26;12.40;99.90
31263;DHT22;17892;52.080;9.006;2024-02-21T15:17:51;12.40;99.90
31263;DHT22;17892;52.080;9.006;2024-02-21T15:20:17;12.30;99.90
31263;DHT22;17892;52.080;9.006;2024-02-21T15:22:42;12.20;99.90
31263;DHT22;17892;52.080;9.006;2024-02-21T15:25:09;12.10;99.90
31263;DHT22;17892;52.080;9.006;2024-02-21T15:27:42;12.10;99.90
31263;DHT22;17892;52.080;9.006;2024-02-21T15:30:09;12.00;99.90
31263;DHT22;17892;52.080;9.006;2024-02-21T15:32:39;12.00;99.90